createdAt,value
2022-10-06T00:00:48.090Z,100.00
2022-10-06T00:03:16.593Z,100.00
2022-10-06T00:05:44.310Z,100.00
2022-10-06T00:08:12.253Z,100.00
2022-10-06T00:10:39.990Z,100.00
2022-10-06T00:13:08.221Z,100.00
2022-10-06T00:15:37.334Z,100.00
2022-10-06T00:18:05.143Z,100.00
2022-10-06T00:20:32.869Z,100.00
2022-10-06T00:23:00.454Z,100.00
2022-10-06T00:25:29.122Z,100.00
2022-10-06T00:27:56.852Z,100.00
2022-10-06T00:30:26.885Z,100.00
2022-10-06T00:32:57.723Z,100.00
2022-10-06T00:35:26.432Z,100.00
2022-10-06T00:37:54.028Z,100.00
2022-10-06T00:40:22.318Z,100.00
2022-10-06T00:42:53.792Z,100.00
2022-10-06T00:45:27.481Z,100.00
2022-10-06T00:48:01.537Z,100.00
2022-10-06T00:50:29.725Z,100.00
2022-10-06T00:52:57.494Z,100.00
2022-10-06T00:55:25.927Z,100.00
2022-10-06T00:57:53.910Z,100.00
2022-10-06T01:00:21.854Z,100.00
2022-10-06T01:02:53.424Z,100.00
2022-10-06T01:05:27.526Z,100.00
2022-10-06T01:07:55.314Z,100.00
2022-10-06T01:10:23.250Z,100.00
2022-10-06T01:12:52.025Z,100.00
2022-10-06T01:15:20.981Z,100.00
2022-10-06T01:17:54.713Z,100.00
2022-10-06T01:20:24.380Z,100.00
2022-10-06T01:22:58.287Z,100.00
2022-10-06T01:25:26.041Z,100.00
2022-10-06T01:27:54.938Z,100.00
2022-10-06T01:30:26.758Z,100.00
2022-10-06T01:32:54.605Z,100.00
2022-10-06T01:35:22.638Z,100.00
2022-10-06T01:37:50.222Z,100.00
2022-10-06T01:40:19.348Z,100.00
2022-10-06T01:42:47.026Z,100.00
2022-10-06T01:45:14.563Z,100.00
2022-10-06T01:47:42.424Z,100.00
2022-10-06T01:50:10.649Z,100.00
2022-10-06T01:52:38.356Z,100.00
2022-10-06T01:55:07.125Z,100.00
2022-10-06T01:57:40.664Z,100.00
2022-10-06T02:00:09.980Z,100.00
2022-10-06T02:02:37.707Z,100.00
2022-10-06T02:05:06.073Z,100.00
2022-10-06T02:07:35.341Z,100.00
2022-10-06T02:10:03.247Z,100.00
2022-10-06T02:12:31.662Z,100.00
2022-10-06T02:15:00.593Z,100.00
2022-10-06T02:17:28.487Z,100.00
2022-10-06T02:19:56.052Z,100.00
2022-10-06T02:22:23.670Z,100.00
2022-10-06T02:24:51.239Z,100.00
2022-10-06T02:27:18.766Z,100.00
2022-10-06T02:29:46.311Z,100.00
2022-10-06T02:32:15.538Z,100.00
2022-10-06T02:34:43.759Z,100.00
2022-10-06T02:37:12.976Z,100.00
2022-10-06T02:39:40.503Z,100.00
2022-10-06T02:42:08.241Z,100.00
2022-10-06T02:44:35.944Z,100.00
2022-10-06T02:47:03.498Z,100.00
2022-10-06T02:49:32.394Z,100.00
2022-10-06T02:51:59.918Z,100.00
2022-10-06T02:54:27.429Z,100.00
2022-10-06T02:56:54.958Z,100.00
2022-10-06T02:59:22.486Z,100.00
2022-10-06T03:01:50.173Z,100.00
2022-10-06T03:04:17.763Z,100.00
2022-10-06T03:06:46.686Z,100.00
2022-10-06T03:09:14.222Z,100.00
2022-10-06T03:11:43.517Z,100.00
2022-10-06T03:14:11.601Z,100.00
2022-10-06T03:16:41.145Z,100.00
2022-10-06T03:19:10.306Z,100.00
2022-10-06T03:21:39.661Z,100.00
2022-10-06T03:24:08.629Z,100.00
2022-10-06T03:26:38.446Z,100.00
2022-10-06T03:29:11.168Z,100.00
2022-10-06T03:31:40.148Z,100.00
2022-10-06T03:34:07.958Z,100.00
2022-10-06T03:36:36.410Z,100.00
2022-10-06T03:39:06.254Z,100.00
2022-10-06T03:41:37.053Z,100.00
2022-10-06T03:44:06.311Z,100.00
2022-10-06T03:46:35.747Z,100.00
2022-10-06T03:49:03.849Z,100.00
2022-10-06T03:51:33.268Z,100.00
2022-10-06T03:54:01.462Z,100.00
2022-10-06T03:56:30.737Z,100.00
2022-10-06T03:59:00.834Z,100.00
2022-10-06T04:01:31.072Z,100.00
2022-10-06T04:04:00.731Z,100.00
2022-10-06T04:06:30.174Z,100.00
2022-10-06T04:08:58.037Z,100.00
2022-10-06T04:11:27.581Z,100.00
2022-10-06T04:14:00.387Z,100.00
2022-10-06T04:16:29.555Z,100.00
2022-10-06T04:18:58.598Z,100.00
2022-10-06T04:21:27.692Z,100.00
2022-10-06T04:23:55.688Z,100.00
2022-10-06T04:26:25.933Z,100.00
2022-10-06T04:28:54.390Z,100.00
2022-10-06T04:31:26.521Z,100.00
2022-10-06T04:33:57.077Z,100.00
2022-10-06T04:36:26.582Z,100.00
2022-10-06T04:38:58.157Z,100.00
2022-10-06T04:41:28.758Z,100.00
2022-10-06T04:43:56.779Z,100.00
2022-10-06T04:46:43.636Z,100.00
2022-10-06T04:49:18.960Z,100.00
2022-10-06T04:51:47.781Z,100.00
2022-10-06T04:54:15.306Z,100.00
2022-10-06T04:56:42.866Z,100.00
2022-10-06T04:59:10.413Z,100.00
2022-10-06T05:01:39.466Z,100.00
2022-10-06T05:04:07.504Z,100.00
2022-10-06T05:06:36.661Z,100.00
2022-10-06T05:09:06.275Z,100.00
2022-10-06T05:11:34.246Z,100.00
2022-10-06T05:14:02.595Z,100.00
2022-10-06T05:16:32.040Z,100.00
2022-10-06T05:19:01.186Z,100.00
2022-10-06T05:21:31.022Z,100.00
2022-10-06T05:23:59.119Z,100.00
2022-10-06T05:26:29.116Z,100.00
2022-10-06T05:28:56.837Z,100.00
2022-10-06T05:31:26.963Z,100.00
2022-10-06T05:33:55.291Z,100.00
2022-10-06T05:36:26.383Z,100.00
2022-10-06T05:38:53.968Z,100.00
2022-10-06T05:41:23.921Z,100.00
2022-10-06T05:43:51.981Z,100.00
2022-10-06T05:46:22.581Z,100.00
2022-10-06T05:48:51.698Z,100.00
2022-10-06T05:51:21.128Z,100.00
2022-10-06T05:53:50.202Z,100.00
2022-10-06T05:56:19.105Z,100.00
2022-10-06T05:58:48.446Z,100.00
2022-10-06T06:01:18.475Z,100.00
2022-10-06T06:03:49.658Z,100.00
2022-10-06T06:06:18.900Z,100.00
2022-10-06T06:08:47.384Z,100.00
2022-10-06T06:11:16.250Z,100.00
2022-10-06T06:13:43.805Z,100.00
2022-10-06T06:16:14.726Z,100.00
2022-10-06T06:18:42.544Z,100.00
2022-10-06T06:21:11.233Z,100.00
2022-10-06T06:23:40.717Z,100.00
2022-10-06T06:26:09.821Z,100.00
2022-10-06T06:28:40.690Z,100.00
2022-10-06T06:31:10.185Z,100.00
2022-10-06T06:33:39.612Z,100.00
2022-10-06T06:36:14.834Z,100.00
2022-10-06T06:38:42.779Z,100.00
2022-10-06T06:41:18.429Z,100.00
2022-10-06T06:43:47.926Z,100.00
2022-10-06T06:46:17.408Z,100.00
2022-10-06T06:48:45.414Z,100.00
2022-10-06T06:51:12.954Z,100.00
2022-10-06T06:53:41.118Z,100.00
2022-10-06T06:56:10.126Z,100.00
2022-10-06T06:58:37.862Z,100.00
2022-10-06T07:01:08.808Z,100.00
2022-10-06T07:03:56.491Z,100.00
2022-10-06T07:06:28.109Z,100.00
2022-10-06T07:08:57.055Z,100.00
2022-10-06T07:11:26.578Z,100.00
2022-10-06T07:13:55.403Z,100.00
2022-10-06T07:16:42.203Z,99.30
2022-10-06T07:19:29.561Z,97.57
2022-10-06T07:22:17.084Z,95.77
2022-10-06T07:25:02.990Z,92.68
2022-10-06T07:27:31.231Z,91.42
2022-10-06T07:29:58.825Z,92.00
2022-10-06T07:32:30.770Z,89.19
2022-10-06T07:34:59.103Z,86.77
2022-10-06T07:37:26.970Z,87.01
2022-10-06T07:39:54.518Z,86.34
2022-10-06T07:42:22.311Z,87.71
2022-10-06T07:45:04.191Z,86.96
2022-10-06T07:47:33.233Z,87.21
2022-10-06T07:50:01.147Z,86.37
2022-10-06T07:52:29.503Z,86.69
2022-10-06T07:54:58.234Z,85.96
2022-10-06T07:57:26.808Z,85.01
2022-10-06T07:59:55.019Z,86.11
2022-10-06T08:02:28.297Z,86.38
2022-10-06T08:04:59.167Z,86.70
2022-10-06T08:07:27.915Z,83.85
2022-10-06T08:09:55.556Z,83.57
2022-10-06T08:12:37.356Z,83.76
2022-10-06T08:15:07.520Z,83.56
2022-10-06T08:17:36.360Z,83.68
2022-10-06T08:20:06.852Z,81.87
2022-10-06T08:22:36.077Z,82.31
2022-10-06T08:25:06.799Z,82.34
2022-10-06T08:27:35.792Z,83.98
2022-10-06T08:30:03.922Z,81.38
2022-10-06T08:32:32.097Z,81.10
2022-10-06T08:34:59.727Z,79.99
2022-10-06T08:37:28.660Z,80.37
2022-10-06T08:39:57.134Z,78.50
2022-10-06T08:42:32.869Z,78.17
2022-10-06T08:45:03.208Z,76.78
2022-10-06T08:47:35.600Z,77.31
2022-10-06T08:50:05.906Z,72.17
2022-10-06T08:52:51.045Z,73.56
2022-10-06T08:55:32.433Z,75.17
2022-10-06T09:00:44.291Z,78.05
2022-10-06T09:03:23.921Z,79.30
2022-10-06T09:05:53.764Z,78.10
2022-10-06T09:08:41.954Z,77.34
2022-10-06T09:11:23.121Z,76.72
2022-10-06T09:13:57.095Z,76.75
2022-10-06T09:16:29.745Z,74.57
2022-10-06T09:19:08.639Z,73.54
2022-10-06T09:21:42.248Z,71.65
2022-10-06T09:24:16.424Z,70.09
2022-10-06T09:26:46.975Z,68.51
2022-10-06T09:29:15.160Z,71.31
2022-10-06T09:31:48.833Z,70.51
2022-10-06T09:34:38.350Z,69.18
2022-10-06T09:37:09.211Z,68.54
2022-10-06T09:39:40.214Z,68.14
2022-10-06T09:42:14.336Z,68.01
2022-10-06T09:44:50.984Z,68.87
2022-10-06T09:47:35.562Z,69.16
2022-10-06T09:50:05.479Z,68.04
2022-10-06T09:52:33.058Z,69.80
2022-10-06T09:55:12.328Z,67.59
2022-10-06T09:57:48.001Z,69.87
2022-10-06T10:00:29.524Z,67.75
2022-10-06T10:02:59.806Z,69.85
2022-10-06T10:05:30.036Z,70.18
2022-10-06T10:08:10.098Z,69.34
2022-10-06T10:10:38.991Z,71.66
2022-10-06T10:13:20.621Z,72.04
2022-10-06T10:15:54.672Z,71.26
2022-10-06T10:18:26.723Z,71.77
2022-10-06T10:20:58.282Z,72.88
2022-10-06T10:23:31.988Z,74.22
2022-10-06T10:26:31.572Z,71.68
2022-10-06T10:29:15.088Z,73.04
2022-10-06T10:31:51.147Z,74.93
2022-10-06T10:34:35.361Z,74.43
2022-10-06T10:37:07.106Z,75.13
2022-10-06T10:39:39.311Z,74.74
2022-10-06T10:42:18.142Z,74.07
2022-10-06T10:44:52.537Z,73.19
2022-10-06T10:47:27.714Z,69.99
2022-10-06T10:50:04.190Z,70.14
2022-10-06T10:52:37.944Z,67.43
2022-10-06T10:55:21.767Z,66.41
2022-10-06T10:57:51.572Z,66.29
2022-10-06T11:00:21.893Z,66.20
2022-10-06T11:02:50.733Z,66.89
2022-10-06T11:05:40.330Z,67.67
2022-10-06T11:08:15.323Z,68.24
2022-10-06T11:10:48.595Z,68.64
2022-10-06T11:13:27.710Z,69.27
2022-10-06T11:16:08.778Z,67.81
2022-10-06T11:18:47.886Z,69.49
2022-10-06T11:21:19.023Z,67.54
2022-10-06T11:23:58.258Z,67.17
2022-10-06T11:26:41.421Z,66.25
2022-10-06T11:29:26.165Z,68.14
2022-10-06T11:32:04.174Z,65.83
2022-10-06T11:34:31.714Z,64.38
2022-10-06T11:37:07.616Z,63.74
2022-10-06T11:39:44.640Z,64.47
2022-10-06T11:42:21.762Z,62.50
2022-10-06T11:44:58.954Z,64.55
2022-10-06T11:47:35.605Z,63.25
2022-10-06T11:50:03.898Z,63.94
2022-10-06T11:52:55.746Z,63.75
2022-10-06T11:55:26.238Z,65.70
2022-10-06T11:58:29.837Z,63.59
2022-10-06T12:00:56.822Z,62.49
2022-10-06T12:04:09.406Z,61.68
2022-10-06T12:07:07.027Z,62.32
2022-10-06T12:09:51.682Z,63.45
2022-10-06T12:12:47.811Z,63.32
2022-10-06T12:18:42.804Z,63.70
2022-10-06T12:21:44.806Z,62.32
2022-10-06T12:24:41.794Z,61.91
2022-10-06T12:27:26.267Z,63.12
2022-10-06T12:30:01.560Z,62.77
2022-10-06T12:32:47.383Z,61.80
2022-10-06T12:35:24.735Z,61.56
2022-10-06T12:37:54.696Z,61.22
2022-10-06T12:40:51.473Z,62.61
2022-10-06T12:43:47.474Z,61.80
2022-10-06T12:46:21.992Z,62.45
2022-10-06T12:49:01.162Z,62.69
2022-10-06T12:51:34.452Z,63.06
2022-10-06T12:54:08.952Z,63.44
2022-10-06T12:56:38.779Z,63.69
2022-10-06T12:59:24.589Z,62.92
2022-10-06T13:01:54.660Z,63.97
2022-10-06T13:04:37.562Z,62.89
2022-10-06T13:07:12.369Z,61.24
2022-10-06T13:09:39.887Z,61.16
2022-10-06T13:12:30.090Z,62.22
2022-10-06T13:15:22.028Z,63.43
2022-10-06T13:17:52.497Z,65.20
2022-10-06T13:20:23.442Z,64.96
2022-10-06T13:23:00.532Z,63.17
2022-10-06T13:25:35.410Z,62.10
2022-10-06T13:28:03.327Z,63.44
2022-10-06T13:30:34.927Z,65.52
2022-10-06T13:33:05.383Z,66.31
2022-10-06T13:35:33.006Z,68.25
2022-10-06T13:38:03.942Z,72.13
2022-10-06T13:40:44.114Z,75.08
2022-10-06T13:43:18.237Z,76.68
2022-10-06T13:45:48.270Z,76.76
2022-10-06T13:48:20.125Z,75.28
2022-10-06T13:50:49.898Z,75.46
2022-10-06T13:53:28.262Z,77.09
2022-10-06T13:55:56.216Z,78.06
2022-10-06T13:58:28.056Z,78.48
2022-10-06T14:00:57.992Z,77.23
2022-10-06T14:03:29.200Z,77.28
2022-10-06T14:06:14.362Z,76.49
2022-10-06T14:08:46.919Z,77.02
2022-10-06T14:11:14.496Z,78.10
2022-10-06T14:13:54.270Z,77.92
2022-10-06T14:16:24.050Z,75.62
2022-10-06T14:18:56.645Z,74.84
2022-10-06T14:21:35.596Z,74.61
2022-10-06T14:24:07.813Z,74.38
2022-10-06T14:26:37.904Z,75.45
2022-10-06T14:29:05.742Z,75.86
2022-10-06T14:31:33.998Z,75.37
2022-10-06T14:34:02.231Z,75.57
2022-10-06T14:36:31.441Z,75.87
2022-10-06T14:39:00.642Z,75.43
2022-10-06T14:41:31.103Z,75.39
2022-10-06T14:44:01.515Z,74.85
2022-10-06T14:46:30.059Z,73.75
2022-10-06T14:48:58.045Z,73.88
2022-10-06T14:51:27.090Z,73.05
2022-10-06T14:53:56.444Z,72.07
2022-10-06T14:56:25.391Z,70.97
2022-10-06T14:58:54.287Z,70.99
2022-10-06T15:01:24.790Z,71.89
2022-10-06T15:03:53.107Z,71.78
2022-10-06T15:06:38.170Z,71.63
2022-10-06T15:09:06.725Z,72.53
2022-10-06T15:11:34.391Z,73.20
2022-10-06T15:14:04.101Z,74.32
2022-10-06T15:16:34.038Z,73.90
2022-10-06T15:19:04.494Z,74.77
2022-10-06T15:21:33.032Z,75.49
2022-10-06T15:24:02.815Z,75.33
2022-10-06T15:26:49.000Z,75.51
2022-10-06T15:29:18.661Z,76.01
2022-10-06T15:31:53.001Z,76.94
2022-10-06T15:34:24.290Z,78.37
2022-10-06T15:36:52.998Z,78.52
2022-10-06T15:39:23.576Z,78.97
2022-10-06T15:41:51.953Z,79.65
2022-10-06T15:44:21.427Z,80.25
2022-10-06T15:46:51.357Z,80.15
2022-10-06T15:49:21.026Z,81.03
2022-10-06T15:51:50.083Z,81.44
2022-10-06T15:54:20.119Z,82.28
2022-10-06T15:56:48.499Z,82.88
2022-10-06T15:59:16.131Z,83.22
2022-10-06T16:01:47.067Z,83.22
2022-10-06T16:04:23.983Z,83.30
2022-10-06T16:06:55.293Z,84.42
2022-10-06T16:09:24.778Z,84.64
2022-10-06T16:11:52.931Z,85.23
2022-10-06T16:14:20.796Z,86.07
2022-10-06T16:16:50.051Z,85.98
2022-10-06T16:19:18.920Z,85.72
2022-10-06T16:21:48.949Z,86.98
2022-10-06T16:24:17.060Z,87.58
2022-10-06T16:26:45.932Z,87.93
2022-10-06T16:29:13.530Z,87.91
2022-10-06T16:31:41.208Z,88.71
2022-10-06T16:34:10.164Z,88.46
2022-10-06T16:36:38.067Z,89.31
2022-10-06T16:39:06.898Z,89.78
2022-10-06T16:41:35.038Z,90.08
2022-10-06T16:44:03.614Z,90.29
2022-10-06T16:46:32.596Z,90.77
2022-10-06T16:49:01.832Z,90.89
2022-10-06T16:51:32.719Z,91.17
2022-10-06T16:54:01.862Z,91.50
2022-10-06T16:56:30.767Z,92.38
2022-10-06T16:59:00.336Z,92.79
2022-10-06T17:01:29.469Z,93.82
2022-10-06T17:04:02.709Z,94.41
2022-10-06T17:06:32.530Z,94.82
2022-10-06T17:09:00.237Z,95.25
2022-10-06T17:11:27.845Z,95.09
2022-10-06T17:13:57.810Z,95.09
2022-10-06T17:16:29.337Z,95.80
2022-10-06T17:18:58.462Z,97.42
2022-10-06T17:21:45.010Z,98.48
2022-10-06T17:24:17.449Z,99.33
2022-10-06T17:26:47.143Z,99.72
2022-10-06T17:29:17.455Z,99.47
2022-10-06T17:31:45.241Z,100.00
2022-10-06T17:34:20.055Z,100.00
2022-10-06T17:36:50.724Z,100.00
2022-10-06T17:39:21.794Z,100.00
2022-10-06T17:41:51.365Z,100.00
2022-10-06T17:44:22.666Z,100.00
2022-10-06T17:46:52.440Z,100.00
2022-10-06T17:49:21.455Z,100.00
2022-10-06T17:51:50.378Z,100.00
2022-10-06T17:54:20.890Z,100.00
2022-10-06T17:56:50.074Z,100.00
2022-10-06T17:59:19.855Z,100.00
2022-10-06T18:01:47.453Z,100.00
2022-10-06T18:04:16.457Z,100.00
2022-10-06T18:06:45.355Z,100.00
2022-10-06T18:09:13.236Z,100.00
2022-10-06T18:11:43.282Z,100.00
2022-10-06T18:14:12.593Z,100.00
2022-10-06T18:16:43.281Z,100.00
2022-10-06T18:19:13.295Z,100.00
2022-10-06T18:21:42.352Z,100.00
2022-10-06T18:24:15.181Z,100.00
2022-10-06T18:26:44.481Z,100.00
2022-10-06T18:29:12.546Z,100.00
2022-10-06T18:31:40.480Z,100.00
2022-10-06T18:36:56.838Z,100.00
2022-10-06T18:39:25.395Z,100.00
2022-10-06T18:41:55.117Z,100.00
2022-10-06T18:44:36.762Z,100.00
2022-10-06T18:47:33.748Z,100.00
2022-10-06T18:50:01.278Z,100.00
2022-10-06T18:52:28.819Z,100.00
2022-10-06T18:54:56.420Z,100.00
2022-10-06T18:57:27.872Z,100.00
2022-10-06T18:59:55.741Z,100.00
2022-10-06T19:02:23.340Z,100.00
2022-10-06T19:04:51.534Z,100.00
2022-10-06T19:07:19.319Z,100.00
2022-10-06T19:09:47.534Z,100.00
2022-10-06T19:12:15.253Z,100.00
2022-10-06T19:14:47.681Z,100.00
2022-10-06T19:17:16.167Z,100.00
2022-10-06T19:19:45.234Z,100.00
2022-10-06T19:22:14.722Z,100.00
2022-10-06T19:24:44.347Z,100.00
2022-10-06T19:27:15.050Z,100.00
2022-10-06T19:29:46.825Z,100.00
2022-10-06T19:32:16.886Z,100.00
2022-10-06T19:34:44.767Z,100.00
2022-10-06T19:37:12.630Z,100.00
2022-10-06T19:39:42.741Z,100.00
2022-10-06T19:42:28.525Z,100.00
2022-10-06T19:44:57.751Z,100.00
2022-10-06T19:47:25.350Z,100.00
2022-10-06T19:49:57.891Z,100.00
2022-10-06T19:52:26.994Z,100.00
2022-10-06T19:54:54.566Z,100.00
2022-10-06T19:57:22.126Z,100.00
2022-10-06T19:59:50.854Z,100.00
2022-10-06T20:02:19.772Z,100.00
2022-10-06T20:04:47.303Z,100.00
2022-10-06T20:07:14.824Z,100.00
2022-10-06T20:09:42.433Z,100.00
2022-10-06T20:12:09.946Z,100.00
2022-10-06T20:14:37.738Z,100.00
2022-10-06T20:17:05.807Z,100.00
2022-10-06T20:19:35.990Z,100.00
2022-10-06T20:22:03.590Z,100.00
2022-10-06T20:24:31.795Z,100.00
2022-10-06T20:26:59.430Z,100.00
2022-10-06T20:29:28.284Z,100.00
2022-10-06T20:31:58.704Z,100.00
2022-10-06T20:34:31.476Z,100.00
2022-10-06T20:37:02.201Z,100.00
2022-10-06T20:39:48.586Z,100.00
2022-10-06T20:42:16.617Z,100.00
2022-10-06T20:44:44.699Z,100.00
2022-10-06T20:47:13.126Z,100.00
2022-10-06T20:49:42.263Z,100.00
2022-10-06T20:52:14.310Z,100.00
2022-10-06T20:54:41.992Z,100.00
2022-10-06T20:57:09.947Z,100.00
2022-10-06T20:59:37.782Z,100.00
2022-10-06T21:02:07.064Z,100.00
2022-10-06T21:04:34.905Z,100.00
2022-10-06T21:07:05.573Z,100.00
2022-10-06T21:09:34.784Z,100.00
2022-10-06T21:12:04.347Z,100.00
2022-10-06T21:14:33.880Z,100.00
2022-10-06T21:17:01.640Z,100.00
2022-10-06T21:19:29.820Z,100.00
2022-10-06T21:21:57.348Z,100.00
2022-10-06T21:24:25.111Z,100.00
2022-10-06T21:26:54.149Z,100.00
2022-10-06T21:29:21.919Z,100.00
2022-10-06T21:31:49.464Z,100.00
2022-10-06T21:34:16.985Z,100.00
2022-10-06T21:36:44.757Z,100.00
2022-10-06T21:39:13.449Z,100.00
2022-10-06T21:41:41.156Z,100.00
2022-10-06T21:44:11.461Z,100.00
2022-10-06T21:46:41.464Z,100.00
2022-10-06T21:49:12.036Z,100.00
2022-10-06T21:51:41.379Z,100.00
2022-10-06T21:54:10.342Z,100.00
2022-10-06T21:56:38.950Z,100.00
2022-10-06T21:59:06.756Z,100.00
2022-10-06T22:01:37.726Z,100.00
2022-10-06T22:04:06.096Z,100.00
2022-10-06T22:06:35.996Z,100.00
2022-10-06T22:09:05.188Z,100.00
2022-10-06T22:11:35.056Z,100.00
2022-10-06T22:14:33.416Z,100.00
2022-10-06T22:17:04.740Z,100.00
2022-10-06T22:19:32.267Z,100.00
2022-10-06T22:21:59.792Z,100.00
2022-10-06T22:24:27.344Z,100.00
2022-10-06T22:26:54.864Z,100.00
2022-10-06T22:29:22.771Z,100.00
2022-10-06T22:31:50.358Z,100.00
2022-10-06T22:34:20.828Z,100.00
2022-10-06T22:36:48.426Z,100.00
2022-10-06T22:39:16.485Z,100.00
2022-10-06T22:41:44.013Z,100.00
2022-10-06T22:44:11.700Z,100.00
2022-10-06T22:46:39.321Z,100.00
2022-10-06T22:49:07.943Z,100.00
2022-10-06T22:51:37.148Z,100.00
2022-10-06T22:54:05.042Z,100.00
2022-10-06T22:56:33.937Z,100.00
2022-10-06T23:06:31.016Z,100.00
2022-10-06T23:09:00.316Z,100.00
2022-10-06T23:11:28.328Z,100.00
2022-10-06T23:13:55.900Z,100.00
2022-10-06T23:16:23.952Z,100.00
2022-10-06T23:18:52.054Z,100.00
2022-10-06T23:21:22.899Z,100.00
2022-10-06T23:23:52.277Z,100.00
2022-10-06T23:26:22.296Z,100.00
2022-10-06T23:28:52.788Z,100.00
2022-10-06T23:31:20.426Z,100.00
2022-10-06T23:33:48.145Z,100.00
2022-10-06T23:36:15.728Z,100.00
2022-10-06T23:38:44.439Z,100.00
2022-10-06T23:41:12.194Z,100.00
2022-10-06T23:43:41.093Z,100.00
2022-10-06T23:46:08.959Z,100.00
2022-10-06T23:48:37.305Z,100.00
2022-10-06T23:51:06.740Z,100.00
2022-10-06T23:53:34.710Z,100.00
2022-10-06T23:56:02.319Z,100.00
2022-10-06T23:58:29.834Z,100.00
